Time;durP1;ratioP1;P1;durP2;ratioP2;P2;SDS_P1;SDS_P2;PMS_P1;PMS_P2;Temp;Humidity;BMP_temperature;BMP_pressure;BME280_temperature;BME280_humidity;BME280_pressure;Samples;Min_cycle;Max_cycle;Signal;HPM_P1;HPM_P2
2023/12/17 00:00:15;;;;;;;17.40;8.77;;;;;;;;;;4931536;29;20241;-71
2023/12/17 00:02:40;;;;;;;15.07;8.00;;;;;;;;;;4928402;29;20236;-71
2023/12/17 00:05:06;;;;;;;18.37;8.40;;;;;;;;;;4929051;29;20217;-71
2023/12/17 00:07:31;;;;;;;15.67;7.40;;;;;;;;;;4913536;29;20824;-70
2023/12/17 00:09:56;;;;;;;13.40;7.27;;;;;;;;;;4929156;29;20256;-70
2023/12/17 00:12:22;;;;;;;13.33;6.70;;;;;;;;;;4932445;29;20232;-71
2023/12/17 00:14:47;;;;;;;16.43;7.37;;;;;;;;;;4912136;29;20225;-71
2023/12/17 00:17:12;;;;;;;14.00;6.97;;;;;;;;;;4927767;29;20706;-71
2023/12/17 00:19:38;;;;;;;14.60;7.03;;;;;;;;;;4913891;29;20288;-71
2023/12/17 00:22:03;;;;;;;13.57;6.33;;;;;;;;;;4928314;29;20225;-71
2023/12/17 00:24:28;;;;;;;14.50;6.83;;;;;;;;;;4928516;29;20225;-70
2023/12/17 00:26:56;;;;;;;13.50;6.83;;;;;;;;;;4926764;29;20242;-71
2023/12/17 00:29:22;;;;;;;13.20;6.60;;;;;;;;;;4928293;29;20305;-71
2023/12/17 00:31:47;;;;;;;13.53;6.70;;;;;;;;;;4912103;29;20324;-71
2023/12/17 00:34:12;;;;;;;13.27;6.60;;;;;;;;;;4929175;29;20221;-71
2023/12/17 00:36:38;;;;;;;13.60;6.50;;;;;;;;;;4928951;29;20249;-71
2023/12/17 00:39:04;;;;;;;14.73;7.03;;;;;;;;;;4927673;29;20226;-73
2023/12/17 00:41:31;;;;;;;14.53;7.40;;;;;;;;;;4924949;29;20237;-74
2023/12/17 00:43:56;;;;;;;13.33;6.87;;;;;;;;;;4925220;29;20867;-74
2023/12/17 00:46:22;;;;;;;15.17;7.10;;;;;;;;;;4925308;29;20312;-74
2023/12/17 00:48:47;;;;;;;14.23;6.67;;;;;;;;;;4909327;29;20320;-73
2023/12/17 00:51:12;;;;;;;16.67;7.20;;;;;;;;;;4925123;29;20241;-74
2023/12/17 00:53:38;;;;;;;14.57;7.17;;;;;;;;;;4925110;29;20293;-74
2023/12/17 00:56:03;;;;;;;16.10;7.40;;;;;;;;;;4925020;29;20237;-74
2023/12/17 00:58:28;;;;;;;15.87;7.80;;;;;;;;;;4910465;29;20222;-74
2023/12/17 01:00:54;;;;;;;16.50;7.30;;;;;;;;;;4924446;29;20288;-74
2023/12/17 01:03:19;;;;;;;17.03;6.90;;;;;;;;;;4908344;29;20837;-74
2023/12/17 01:05:44;;;;;;;14.43;7.00;;;;;;;;;;4921657;29;20739;-74
2023/12/17 01:08:10;;;;;;;16.83;7.83;;;;;;;;;;4925396;29;20235;-74
2023/12/17 01:10:35;;;;;;;11.93;6.37;;;;;;;;;;4924316;29;20273;-74
2023/12/17 01:13:01;;;;;;;14.30;7.03;;;;;;;;;;4924816;29;20301;-75
2023/12/17 01:15:26;;;;;;;13.90;7.30;;;;;;;;;;4925361;29;20233;-74
2023/12/17 01:17:52;;;;;;;15.83;7.63;;;;;;;;;;4901683;29;20598;-74
2023/12/17 01:20:17;;;;;;;17.47;8.40;;;;;;;;;;4924050;29;20248;-74
2023/12/17 01:22:42;;;;;;;18.63;8.73;;;;;;;;;;4925232;29;20581;-74
2023/12/17 01:25:08;;;;;;;18.57;8.53;;;;;;;;;;4903040;29;20225;-74
2023/12/17 01:27:33;;;;;;;19.17;9.10;;;;;;;;;;4900297;29;20679;-73
2023/12/17 01:29:58;;;;;;;19.07;9.07;;;;;;;;;;4925582;29;20292;-74
2023/12/17 01:32:24;;;;;;;20.07;9.47;;;;;;;;;;4923179;29;20217;-74
2023/12/17 01:34:49;;;;;;;18.87;9.50;;;;;;;;;;4923634;29;20231;-74
2023/12/17 01:37:15;;;;;;;17.67;8.57;;;;;;;;;;4909636;29;20237;-70
2023/12/17 01:39:41;;;;;;;18.30;9.33;;;;;;;;;;4925755;29;20726;-71
2023/12/17 01:42:06;;;;;;;21.27;9.30;;;;;;;;;;4911380;29;20628;-71
2023/12/17 01:44:32;;;;;;;18.90;8.93;;;;;;;;;;4927295;29;20225;-71
2023/12/17 01:46:57;;;;;;;19.00;9.27;;;;;;;;;;4930380;29;20236;-71
2023/12/17 01:49:22;;;;;;;21.13;9.40;;;;;;;;;;4925317;29;20316;-70
2023/12/17 01:51:48;;;;;;;20.90;9.13;;;;;;;;;;4912464;29;20237;-72
2023/12/17 01:54:13;;;;;;;18.03;9.20;;;;;;;;;;4926731;29;20229;-70
2023/12/17 01:56:38;;;;;;;20.20;9.70;;;;;;;;;;4912834;29;20225;-70
2023/12/17 01:59:04;;;;;;;20.60;9.67;;;;;;;;;;4929086;29;20229;-70
2023/12/17 02:01:29;;;;;;;22.37;10.10;;;;;;;;;;4925977;29;20260;-70
2023/12/17 02:03:57;;;;;;;20.27;9.10;;;;;;;;;;4913162;29;20793;-70
2023/12/17 02:06:22;;;;;;;20.93;9.27;;;;;;;;;;4914544;29;20233;-71
2023/12/17 02:08:47;;;;;;;19.53;9.03;;;;;;;;;;4929347;29;20271;-71
2023/12/17 02:11:13;;;;;;;21.13;9.00;;;;;;;;;;4914062;29;20237;-71
2023/12/17 02:13:38;;;;;;;18.97;9.20;;;;;;;;;;4914630;29;20284;-71
2023/12/17 02:16:04;;;;;;;19.80;9.40;;;;;;;;;;4912605;29;20233;-71
2023/12/17 02:18:29;;;;;;;18.77;9.17;;;;;;;;;;4929054;29;20218;-70
2023/12/17 02:20:54;;;;;;;19.70;9.10;;;;;;;;;;4929015;29;20742;-71
2023/12/17 02:23:20;;;;;;;18.23;8.57;;;;;;;;;;4933312;29;20236;-70
2023/12/17 02:25:45;;;;;;;20.90;8.80;;;;;;;;;;4919092;29;20233;-71
2023/12/17 02:28:11;;;;;;;18.73;9.07;;;;;;;;;;4932114;29;20225;-71
2023/12/17 02:30:36;;;;;;;17.03;8.50;;;;;;;;;;4929501;29;21043;-71
2023/12/17 02:33:01;;;;;;;16.60;8.10;;;;;;;;;;4934732;29;20229;-71
2023/12/17 02:35:27;;;;;;;16.40;7.93;;;;;;;;;;4916897;29;20225;-70
2023/12/17 02:37:52;;;;;;;15.47;7.90;;;;;;;;;;4912361;29;20225;-73
2023/12/17 02:40:17;;;;;;;18.67;7.90;;;;;;;;;;4909991;29;20222;-73
2023/12/17 02:42:43;;;;;;;16.10;7.90;;;;;;;;;;4927974;29;20248;-73
2023/12/17 02:45:08;;;;;;;14.97;7.20;;;;;;;;;;4910807;29;20256;-74
2023/12/17 02:47:34;;;;;;;16.40;7.70;;;;;;;;;;4926437;29;20272;-74
2023/12/17 02:49:59;;;;;;;14.17;6.93;;;;;;;;;;4902357;29;20344;-74
2023/12/17 02:52:26;;;;;;;15.03;6.97;;;;;;;;;;4910444;29;20260;-75
2023/12/17 02:54:51;;;;;;;15.33;7.10;;;;;;;;;;4928748;29;20222;-74
2023/12/17 02:57:16;;;;;;;14.43;7.20;;;;;;;;;;4910331;29;20229;-74
2023/12/17 02:59:42;;;;;;;15.73;7.53;;;;;;;;;;4926658;29;20225;-75
2023/12/17 03:02:07;;;;;;;13.90;7.03;;;;;;;;;;4929040;29;20232;-74
2023/12/17 03:04:32;;;;;;;14.60;6.77;;;;;;;;;;4927379;29;20233;-73
2023/12/17 03:06:58;;;;;;;13.60;6.87;;;;;;;;;;4910612;29;20321;-73
2023/12/17 03:09:23;;;;;;;14.27;6.90;;;;;;;;;;4926363;29;20316;-74
2023/12/17 03:11:48;;;;;;;14.30;6.97;;;;;;;;;;4907256;29;20222;-74
2023/12/17 03:14:14;;;;;;;13.57;6.80;;;;;;;;;;4919074;29;20700;-73
2023/12/17 03:16:39;;;;;;;14.93;7.20;;;;;;;;;;4911039;29;20235;-70
2023/12/17 03:19:04;;;;;;;13.27;6.57;;;;;;;;;;4927426;29;20229;-70
2023/12/17 03:21:30;;;;;;;14.47;7.07;;;;;;;;;;4927034;29;20261;-71
2023/12/17 03:23:55;;;;;;;15.67;7.00;;;;;;;;;;4912314;29;20228;-71
2023/12/17 03:26:20;;;;;;;15.73;6.93;;;;;;;;;;4928552;29;20248;-72
2023/12/17 03:28:46;;;;;;;15.33;6.93;;;;;;;;;;4928413;29;20309;-69
2023/12/17 03:31:12;;;;;;;14.53;6.90;;;;;;;;;;4928074;29;20233;-74
2023/12/17 03:33:38;;;;;;;12.63;6.50;;;;;;;;;;4925926;29;20296;-74
2023/12/17 03:36:03;;;;;;;13.13;6.80;;;;;;;;;;4926635;29;20253;-74
2023/12/17 03:38:29;;;;;;;16.27;7.20;;;;;;;;;;4926922;29;20225;-73
2023/12/17 03:40:54;;;;;;;14.07;6.80;;;;;;;;;;4927850;29;20236;-74
2023/12/17 03:43:19;;;;;;;11.93;6.37;;;;;;;;;;4926388;29;20309;-74
2023/12/17 03:45:45;;;;;;;12.90;6.60;;;;;;;;;;4910900;29;20610;-74
2023/12/17 03:48:10;;;;;;;15.00;6.77;;;;;;;;;;4926695;29;20620;-74
2023/12/17 03:50:35;;;;;;;14.33;6.73;;;;;;;;;;4910455;29;20237;-74
2023/12/17 03:53:01;;;;;;;12.97;6.67;;;;;;;;;;4927942;29;20221;-74
2023/12/17 03:55:26;;;;;;;13.07;6.60;;;;;;;;;;4926216;29;20253;-73
2023/12/17 03:57:51;;;;;;;12.83;6.60;;;;;;;;;;4910825;29;20312;-74
2023/12/17 04:00:17;;;;;;;13.83;6.73;;;;;;;;;;4926332;29;20233;-74
2023/12/17 04:02:42;;;;;;;13.40;6.50;;;;;;;;;;4927019;29;20241;-73
2023/12/17 04:05:08;;;;;;;13.63;6.60;;;;;;;;;;4927899;29;20292;-75
2023/12/17 04:07:33;;;;;;;15.10;6.70;;;;;;;;;;4927907;29;20240;-73
2023/12/17 04:10:02;;;;;;;14.07;6.93;;;;;;;;;;4927055;29;20742;-74
2023/12/17 04:12:27;;;;;;;12.57;6.73;;;;;;;;;;4909577;29;20233;-74
2023/12/17 04:14:53;;;;;;;14.10;6.60;;;;;;;;;;4910796;29;20918;-74
2023/12/17 04:17:18;;;;;;;13.70;6.87;;;;;;;;;;4925772;29;20243;-74
2023/12/17 04:19:43;;;;;;;12.63;7.20;;;;;;;;;;4910761;29;20253;-74
2023/12/17 04:22:09;;;;;;;13.83;6.73;;;;;;;;;;4910855;29;20221;-73
2023/12/17 04:24:34;;;;;;;13.20;7.00;;;;;;;;;;4910280;29;21295;-73
2023/12/17 04:26:59;;;;;;;15.50;7.17;;;;;;;;;;4927653;29;20232;-73
2023/12/17 04:29:25;;;;;;;13.20;6.80;;;;;;;;;;4927274;29;20247;-74
2023/12/17 04:31:50;;;;;;;11.90;6.63;;;;;;;;;;4926123;29;20225;-74
2023/12/17 04:34:15;;;;;;;11.57;6.40;;;;;;;;;;4910314;29;20229;-72
2023/12/17 04:36:41;;;;;;;11.50;6.30;;;;;;;;;;4909847;29;20233;-73
2023/12/17 04:39:06;;;;;;;12.03;6.63;;;;;;;;;;4926267;29;20313;-73
2023/12/17 04:41:33;;;;;;;13.17;6.73;;;;;;;;;;4925263;29;20916;-72
2023/12/17 04:43:58;;;;;;;13.30;6.90;;;;;;;;;;4925317;29;20271;-74
2023/12/17 04:46:24;;;;;;;13.73;7.10;;;;;;;;;;4910102;29;20264;-74
2023/12/17 04:48:49;;;;;;;14.70;7.40;;;;;;;;;;4908161;29;20226;-74
2023/12/17 04:51:16;;;;;;;13.07;7.10;;;;;;;;;;4925374;29;20308;-74
2023/12/17 04:53:42;;;;;;;14.27;6.83;;;;;;;;;;4909815;29;20232;-73
2023/12/17 04:56:07;;;;;;;13.50;6.60;;;;;;;;;;4912441;29;20233;-71
2023/12/17 04:58:32;;;;;;;12.93;6.70;;;;;;;;;;4927373;29;20236;-71
2023/12/17 05:00:59;;;;;;;16.80;7.20;;;;;;;;;;4927445;29;20233;-70
2023/12/17 05:03:27;;;;;;;12.73;6.30;;;;;;;;;;4909791;29;20225;-71
2023/12/17 05:05:53;;;;;;;13.03;6.67;;;;;;;;;;4926459;29;20238;-71
2023/12/17 05:08:18;;;;;;;12.93;6.80;;;;;;;;;;4910094;29;20229;-71
2023/12/17 05:10:44;;;;;;;15.37;7.00;;;;;;;;;;4909344;29;20300;-70
2023/12/17 05:13:09;;;;;;;13.90;6.97;;;;;;;;;;4925872;29;20231;-71
2023/12/17 05:15:34;;;;;;;14.00;7.07;;;;;;;;;;4910009;29;20229;-71
2023/12/17 05:18:00;;;;;;;13.27;6.93;;;;;;;;;;4925964;29;20225;-71
2023/12/17 05:20:25;;;;;;;14.20;7.10;;;;;;;;;;4909715;29;20240;-71
2023/12/17 05:22:51;;;;;;;15.40;7.47;;;;;;;;;;4909674;29;20730;-71
2023/12/17 05:25:16;;;;;;;13.27;6.90;;;;;;;;;;4895664;29;20756;-71
2023/12/17 05:27:41;;;;;;;13.23;7.10;;;;;;;;;;4910201;29;20307;-71
2023/12/17 05:30:07;;;;;;;13.33;7.30;;;;;;;;;;4927444;29;20226;-71
2023/12/17 05:32:32;;;;;;;16.03;7.47;;;;;;;;;;4924032;29;20241;-70
2023/12/17 05:34:58;;;;;;;14.30;7.10;;;;;;;;;;4925994;29;20300;-71
2023/12/17 05:37:23;;;;;;;14.20;7.20;;;;;;;;;;4926041;29;21109;-71
2023/12/17 05:39:48;;;;;;;15.63;7.57;;;;;;;;;;4926707;29;20234;-70
2023/12/17 05:42:14;;;;;;;14.60;7.47;;;;;;;;;;4925945;29;20226;-71
2023/12/17 05:44:39;;;;;;;14.53;7.20;;;;;;;;;;4911234;29;20225;-71
2023/12/17 05:47:05;;;;;;;14.83;7.40;;;;;;;;;;4926060;29;20233;-71
2023/12/17 05:49:30;;;;;;;16.07;7.83;;;;;;;;;;4911441;29;20308;-71
2023/12/17 05:51:55;;;;;;;15.07;7.03;;;;;;;;;;4925992;29;20237;-69
2023/12/17 05:54:21;;;;;;;14.37;7.30;;;;;;;;;;4926552;29;20229;-71
2023/12/17 05:56:46;;;;;;;16.73;7.67;;;;;;;;;;4910555;29;20316;-72
2023/12/17 05:59:12;;;;;;;14.97;7.33;;;;;;;;;;4911352;29;20217;-72
2023/12/17 06:01:37;;;;;;;15.03;6.80;;;;;;;;;;4927353;29;20229;-70
2023/12/17 06:04:02;;;;;;;14.60;7.40;;;;;;;;;;4926607;29;20659;-71
2023/12/17 06:06:28;;;;;;;17.17;8.17;;;;;;;;;;4910256;29;20245;-70
2023/12/17 06:08:53;;;;;;;17.90;8.40;;;;;;;;;;4923873;29;20738;-70
2023/12/17 06:11:19;;;;;;;15.47;8.67;;;;;;;;;;4909551;29;20242;-71
2023/12/17 06:13:44;;;;;;;16.77;8.70;;;;;;;;;;4925793;29;20596;-72
2023/12/17 06:16:10;;;;;;;18.67;8.87;;;;;;;;;;4925406;29;20249;-72
2023/12/17 06:18:35;;;;;;;17.57;9.10;;;;;;;;;;4909572;29;20225;-71
2023/12/17 06:21:01;;;;;;;17.53;9.00;;;;;;;;;;4921647;29;20276;-71
2023/12/17 06:23:27;;;;;;;14.73;8.13;;;;;;;;;;4924553;29;20233;-73
2023/12/17 06:25:52;;;;;;;18.53;8.70;;;;;;;;;;4921483;29;20236;-74
2023/12/17 06:28:20;;;;;;;17.50;8.77;;;;;;;;;;4907849;29;20312;-74
2023/12/17 06:30:45;;;;;;;15.93;8.30;;;;;;;;;;4908359;29;20267;-73
2023/12/17 06:33:11;;;;;;;16.27;8.20;;;;;;;;;;4909384;29;20249;-73
2023/12/17 06:35:37;;;;;;;17.53;8.43;;;;;;;;;;4907792;29;20236;-73
2023/12/17 06:38:02;;;;;;;17.67;8.83;;;;;;;;;;4925481;29;20221;-73
2023/12/17 06:40:27;;;;;;;16.87;8.50;;;;;;;;;;4906792;29;20224;-74
2023/12/17 06:42:53;;;;;;;15.70;8.53;;;;;;;;;;4908472;29;20221;-74
2023/12/17 06:45:18;;;;;;;19.30;9.03;;;;;;;;;;4925016;29;20237;-72
2023/12/17 06:47:44;;;;;;;18.67;8.53;;;;;;;;;;4924317;29;20427;-72
2023/12/17 06:50:10;;;;;;;16.03;8.30;;;;;;;;;;4908943;29;20725;-71
2023/12/17 06:52:35;;;;;;;14.27;7.30;;;;;;;;;;4907050;29;20798;-72
2023/12/17 06:55:01;;;;;;;14.43;7.87;;;;;;;;;;4926243;29;20232;-71
2023/12/17 06:57:26;;;;;;;15.37;7.37;;;;;;;;;;4919289;29;20232;-71
2023/12/17 06:59:52;;;;;;;14.53;6.83;;;;;;;;;;4925555;29;20232;-73
2023/12/17 07:02:17;;;;;;;14.10;6.63;;;;;;;;;;4923994;29;20312;-73
2023/12/17 07:04:43;;;;;;;15.23;7.37;;;;;;;;;;4925350;29;20760;-73
2023/12/17 07:07:08;;;;;;;12.80;6.30;;;;;;;;;;4926023;29;20226;-72
2023/12/17 07:09:33;;;;;;;13.40;6.83;;;;;;;;;;4928062;29;20245;-71
2023/12/17 07:11:59;;;;;;;12.30;6.47;;;;;;;;;;4912816;29;20227;-71
2023/12/17 07:14:24;;;;;;;13.90;6.70;;;;;;;;;;4928270;29;20225;-71
2023/12/17 07:16:50;;;;;;;16.73;7.43;;;;;;;;;;4910801;29;20771;-70
2023/12/17 07:19:15;;;;;;;16.47;7.70;;;;;;;;;;4912219;29;20226;-73
2023/12/17 07:21:43;;;;;;;16.17;7.80;;;;;;;;;;4929373;29;20233;-72
2023/12/17 07:24:08;;;;;;;13.53;6.87;;;;;;;;;;4930474;29;20304;-72
2023/12/17 07:26:34;;;;;;;14.83;7.17;;;;;;;;;;4928906;29;20329;-71
2023/12/17 07:28:59;;;;;;;13.70;6.57;;;;;;;;;;4928791;29;20614;-72
2023/12/17 07:31:25;;;;;;;12.50;6.60;;;;;;;;;;4928467;29;20727;-71
2023/12/17 07:33:50;;;;;;;13.53;5.90;;;;;;;;;;4911901;29;20221;-71
2023/12/17 07:36:16;;;;;;;16.67;7.10;;;;;;;;;;4928288;29;20233;-70
2023/12/17 07:38:41;;;;;;;14.10;6.90;;;;;;;;;;4912113;29;20222;-71
2023/12/17 07:41:07;;;;;;;14.27;6.80;;;;;;;;;;4929985;29;20258;-73
2023/12/17 07:43:34;;;;;;;15.73;7.00;;;;;;;;;;4920810;29;20232;-72
2023/12/17 07:45:59;;;;;;;14.50;6.63;;;;;;;;;;4928387;29;20277;-71
2023/12/17 07:48:24;;;;;;;14.90;7.30;;;;;;;;;;4927009;29;20233;-71
2023/12/17 07:50:50;;;;;;;17.03;7.67;;;;;;;;;;4929284;29;20249;-71
2023/12/17 07:53:15;;;;;;;13.63;6.73;;;;;;;;;;4911700;29;20869;-73
2023/12/17 07:55:41;;;;;;;15.07;7.13;;;;;;;;;;4926356;29;20268;-72
2023/12/17 07:58:07;;;;;;;14.70;7.47;;;;;;;;;;4928787;29;20221;-74
2023/12/17 08:00:35;;;;;;;17.57;8.20;;;;;;;;;;4926441;29;20236;-73
2023/12/17 08:03:01;;;;;;;14.53;7.63;;;;;;;;;;4901506;29;20221;-74
2023/12/17 08:05:28;;;;;;;15.43;7.97;;;;;;;;;;4926079;29;20241;-74
2023/12/17 08:07:54;;;;;;;16.17;7.70;;;;;;;;;;4925799;29;20235;-72
2023/12/17 08:10:19;;;;;;;14.67;7.47;;;;;;;;;;4927241;29;20237;-73
2023/12/17 08:12:45;;;;;;;19.97;8.80;;;;;;;;;;4926177;29;20233;-74
2023/12/17 08:15:10;;;;;;;20.43;9.60;;;;;;;;;;4910983;29;20300;-74
2023/12/17 08:17:36;;;;;;;19.33;9.50;;;;;;;;;;4928888;29;20331;-72
2023/12/17 08:20:01;;;;;;;22.53;10.40;;;;;;;;;;4909941;29;20234;-72
2023/12/17 08:22:30;;;;;;;20.27;9.30;;;;;;;;;;4910344;29;20236;-72
2023/12/17 08:24:55;;;;;;;22.00;10.07;;;;;;;;;;4912018;29;20226;-73
2023/12/17 08:27:21;;;;;;;42.73;15.17;;;;;;;;;;4925737;29;20233;-74
2023/12/17 08:29:50;;;;;;;30.70;12.03;;;;;;;;;;4927753;29;20644;-74
2023/12/17 08:32:15;;;;;;;24.83;10.50;;;;;;;;;;4909915;29;20273;-72
2023/12/17 08:34:41;;;;;;;29.47;12.00;;;;;;;;;;4926885;29;20245;-70
2023/12/17 08:37:06;;;;;;;23.20;10.77;;;;;;;;;;4929048;29;20257;-72
2023/12/17 08:39:32;;;;;;;23.80;10.23;;;;;;;;;;4927158;29;20669;-71
2023/12/17 08:41:57;;;;;;;25.73;11.33;;;;;;;;;;4927484;29;20232;-71
2023/12/17 08:44:25;;;;;;;21.97;10.10;;;;;;;;;;4925478;29;20295;-72
2023/12/17 08:46:51;;;;;;;20.10;9.60;;;;;;;;;;4925660;29;20758;-72
2023/12/17 08:49:16;;;;;;;22.30;9.27;;;;;;;;;;4926519;29;20230;-73
2023/12/17 08:51:41;;;;;;;16.87;8.77;;;;;;;;;;4925279;29;20315;-73
2023/12/17 08:54:10;;;;;;;16.33;8.70;;;;;;;;;;4926466;29;21083;-71
2023/12/17 08:56:36;;;;;;;19.67;9.07;;;;;;;;;;4925587;29;20229;-71
2023/12/17 08:59:02;;;;;;;20.00;9.50;;;;;;;;;;4925210;29;20232;-73
2023/12/17 09:01:27;;;;;;;19.73;10.50;;;;;;;;;;4925258;29;20233;-70
2023/12/17 09:03:53;;;;;;;22.37;11.33;;;;;;;;;;4925309;29;20226;-70
2023/12/17 09:06:18;;;;;;;22.17;10.80;;;;;;;;;;4926132;29;20240;-72
2023/12/17 09:08:44;;;;;;;23.00;10.90;;;;;;;;;;4925505;29;20232;-75
2023/12/17 09:11:09;;;;;;;22.20;10.50;;;;;;;;;;4909464;29;20288;-74
2023/12/17 09:13:35;;;;;;;21.50;10.67;;;;;;;;;;4924867;29;20225;-73
2023/12/17 09:16:00;;;;;;;19.30;9.80;;;;;;;;;;4924399;29;20221;-74
2023/12/17 09:18:25;;;;;;;15.90;8.37;;;;;;;;;;4908732;29;20253;-72
2023/12/17 09:20:51;;;;;;;17.83;9.07;;;;;;;;;;4926180;29;20235;-73
2023/12/17 09:23:16;;;;;;;20.00;9.93;;;;;;;;;;4925889;29;20213;-72
2023/12/17 09:25:41;;;;;;;17.13;9.17;;;;;;;;;;4924848;29;20225;-73
2023/12/17 09:28:07;;;;;;;17.20;9.17;;;;;;;;;;4924725;29;20233;-74
2023/12/17 09:30:32;;;;;;;18.40;9.03;;;;;;;;;;4907902;29;20593;-74
2023/12/17 09:32:57;;;;;;;16.17;8.43;;;;;;;;;;4927373;29;20210;-75
2023/12/17 09:35:23;;;;;;;16.03;8.40;;;;;;;;;;4924510;29;20267;-73
2023/12/17 09:37:48;;;;;;;17.73;8.43;;;;;;;;;;4925469;29;20245;-73
2023/12/17 09:40:15;;;;;;;17.13;8.33;;;;;;;;;;4908667;29;20227;-73
2023/12/17 09:42:41;;;;;;;20.37;10.23;;;;;;;;;;4926475;29;20336;-72
2023/12/17 09:45:08;;;;;;;17.27;8.97;;;;;;;;;;4924883;29;20312;-73
2023/12/17 09:47:33;;;;;;;21.40;10.40;;;;;;;;;;4925012;29;20221;-73
2023/12/17 09:49:59;;;;;;;17.53;9.33;;;;;;;;;;4908722;29;20935;-70
2023/12/17 09:52:24;;;;;;;24.40;11.17;;;;;;;;;;4906198;29;20774;-70
2023/12/17 09:54:51;;;;;;;19.10;8.77;;;;;;;;;;4924311;29;20229;-70
2023/12/17 09:57:17;;;;;;;18.50;9.63;;;;;;;;;;4908549;29;20377;-71
2023/12/17 09:59:43;;;;;;;22.70;10.87;;;;;;;;;;4926015;29;20336;-73
2023/12/17 10:02:13;;;;;;;20.23;9.30;;;;;;;;;;4924265;29;20232;-73
2023/12/17 10:04:39;;;;;;;23.60;10.67;;;;;;;;;;4923707;29;20252;-74
2023/12/17 10:07:05;;;;;;;19.10;9.73;;;;;;;;;;4925738;29;20253;-74
2023/12/17 10:09:32;;;;;;;18.40;9.00;;;;;;;;;;4923620;29;20225;-73
2023/12/17 10:11:57;;;;;;;19.50;9.43;;;;;;;;;;4924238;29;20232;-73
2023/12/17 10:14:23;;;;;;;19.23;9.27;;;;;;;;;;4923721;29;20249;-72
2023/12/17 10:16:49;;;;;;;17.30;8.97;;;;;;;;;;4925844;29;20229;-73
2023/12/17 10:19:15;;;;;;;19.33;10.10;;;;;;;;;;4908246;29;20233;-73
2023/12/17 10:21:40;;;;;;;19.57;10.40;;;;;;;;;;4923400;29;20226;-73
2023/12/17 10:24:06;;;;;;;16.77;8.87;;;;;;;;;;4923988;29;20222;-72
2023/12/17 10:26:44;;;;;;;16.20;8.13;;;;;;;;;;4923469;29;20234;-74
2023/12/17 10:29:16;;;;;;;17.33;8.47;;;;;;;;;;4908716;29;20252;-73
2023/12/17 10:31:42;;;;;;;17.83;9.27;;;;;;;;;;4924122;29;20237;-73
2023/12/17 10:34:30;;;;;;;22.60;10.33;;;;;;;;;;4924150;29;20218;-74
2023/12/17 10:36:55;;;;;;;20.13;10.73;;;;;;;;;;4924482;29;20320;-72
2023/12/17 10:39:21;;;;;;;20.53;9.43;;;;;;;;;;4907219;29;20265;-73
2023/12/17 10:41:46;;;;;;;20.17;10.13;;;;;;;;;;4924568;29;20225;-72
2023/12/17 10:44:12;;;;;;;32.63;14.67;;;;;;;;;;4927560;29;20214;-74
2023/12/17 10:46:42;;;;;;;22.13;9.90;;;;;;;;;;4927550;29;20935;-70
2023/12/17 10:49:07;;;;;;;20.80;9.27;;;;;;;;;;4912292;29;20631;-69
2023/12/17 10:51:34;;;;;;;20.47;10.10;;;;;;;;;;4926572;29;20240;-70
2023/12/17 10:53:59;;;;;;;16.70;8.87;;;;;;;;;;4928761;29;20217;-70
2023/12/17 10:56:25;;;;;;;17.27;8.83;;;;;;;;;;4910597;29;20249;-69
2023/12/17 10:58:51;;;;;;;16.03;9.10;;;;;;;;;;4927285;29;20316;-70
2023/12/17 11:01:17;;;;;;;18.27;9.47;;;;;;;;;;4926589;29;20233;-70
2023/12/17 11:03:42;;;;;;;19.27;9.17;;;;;;;;;;4912230;29;20663;-70
2023/12/17 11:06:08;;;;;;;17.03;9.20;;;;;;;;;;4912723;29;20234;-69
2023/12/17 11:08:35;;;;;;;18.40;9.33;;;;;;;;;;4927607;29;20236;-69
2023/12/17 11:11:01;;;;;;;16.23;8.60;;;;;;;;;;4927704;29;20727;-70
2023/12/17 11:13:26;;;;;;;20.47;9.57;;;;;;;;;;4927916;29;20232;-69
2023/12/17 11:15:52;;;;;;;17.03;9.37;;;;;;;;;;4911882;29;20236;-71
2023/12/17 11:18:17;;;;;;;18.60;9.03;;;;;;;;;;4916748;29;20230;-69
2023/12/17 11:20:46;;;;;;;18.57;9.20;;;;;;;;;;4928545;29;20301;-70
2023/12/17 11:23:11;;;;;;;20.83;10.10;;;;;;;;;;4911724;29;20232;-70
2023/12/17 11:25:37;;;;;;;20.07;9.50;;;;;;;;;;4927863;29;20229;-70
2023/12/17 11:28:02;;;;;;;19.23;9.50;;;;;;;;;;4927963;29;20586;-69
2023/12/17 11:30:28;;;;;;;20.00;10.27;;;;;;;;;;4911280;29;20307;-69
2023/12/17 11:32:53;;;;;;;22.37;10.87;;;;;;;;;;4911150;29;20221;-70
2023/12/17 11:35:19;;;;;;;20.17;10.07;;;;;;;;;;4925629;29;20229;-70
2023/12/17 11:37:44;;;;;;;20.07;10.30;;;;;;;;;;4928257;29;20222;-69
2023/12/17 11:40:10;;;;;;;18.70;9.27;;;;;;;;;;4927713;29;20301;-70
2023/12/17 11:42:40;;;;;;;21.50;10.77;;;;;;;;;;4927132;29;20222;-70
2023/12/17 11:45:05;;;;;;;16.97;9.07;;;;;;;;;;4912093;29;20221;-70
2023/12/17 11:47:31;;;;;;;16.70;8.97;;;;;;;;;;4911952;29;20604;-69
2023/12/17 11:49:58;;;;;;;17.00;9.20;;;;;;;;;;4929521;29;20288;-70
2023/12/17 11:52:24;;;;;;;16.83;8.23;;;;;;;;;;4926958;29;20749;-70
2023/12/17 11:54:56;;;;;;;16.77;8.77;;;;;;;;;;4910881;29;20222;-71
2023/12/17 11:57:25;;;;;;;18.20;9.10;;;;;;;;;;4925969;29;20882;-70
2023/12/17 11:59:50;;;;;;;16.93;8.80;;;;;;;;;;4926955;29;20301;-70
2023/12/17 12:02:16;;;;;;;17.57;9.43;;;;;;;;;;4926167;29;20348;-70
2023/12/17 12:04:42;;;;;;;17.17;8.93;;;;;;;;;;4911165;29;20225;-70
2023/12/17 12:07:07;;;;;;;14.90;7.87;;;;;;;;;;4910397;29;20652;-70
2023/12/17 12:09:33;;;;;;;16.53;8.80;;;;;;;;;;4927694;29;20714;-71
2023/12/17 12:11:58;;;;;;;16.57;8.97;;;;;;;;;;4926485;29;20275;-69
2023/12/17 12:14:23;;;;;;;19.13;9.60;;;;;;;;;;4909557;29;20673;-70
2023/12/17 12:16:49;;;;;;;18.87;9.63;;;;;;;;;;4926726;29;20253;-69
2023/12/17 12:19:14;;;;;;;16.87;8.67;;;;;;;;;;4927706;29;20222;-70
2023/12/17 12:21:40;;;;;;;17.90;9.23;;;;;;;;;;4910415;29;20226;-69
2023/12/17 12:24:09;;;;;;;21.03;10.37;;;;;;;;;;4910879;29;20221;-70
2023/12/17 12:26:34;;;;;;;17.47;9.27;;;;;;;;;;4926292;29;20305;-70
2023/12/17 12:29:00;;;;;;;20.10;10.50;;;;;;;;;;4911111;29;20220;-70
2023/12/17 12:31:26;;;;;;;20.17;10.43;;;;;;;;;;4925682;29;20241;-70
2023/12/17 12:33:55;;;;;;;17.57;8.80;;;;;;;;;;4909630;29;20672;-69
2023/12/17 12:36:21;;;;;;;16.97;8.80;;;;;;;;;;4910043;29;20321;-69
2023/12/17 12:38:57;;;;;;;17.00;9.03;;;;;;;;;;4928224;29;20313;-69
2023/12/17 12:41:23;;;;;;;17.73;9.60;;;;;;;;;;4926806;29;20260;-71
2023/12/17 12:43:51;;;;;;;18.67;9.67;;;;;;;;;;4927683;29;20302;-72
2023/12/17 12:46:17;;;;;;;19.00;9.90;;;;;;;;;;4924487;29;20288;-72
2023/12/17 12:48:42;;;;;;;19.63;9.90;;;;;;;;;;4910492;29;20233;-72
2023/12/17 12:51:07;;;;;;;17.30;9.20;;;;;;;;;;4902484;29;20319;-72
2023/12/17 12:53:33;;;;;;;18.90;9.93;;;;;;;;;;4924399;29;20229;-70
2023/12/17 12:55:58;;;;;;;18.43;9.70;;;;;;;;;;4926426;29;20233;-72
2023/12/17 12:58:24;;;;;;;20.17;10.43;;;;;;;;;;4910016;29;20312;-72
2023/12/17 13:00:49;;;;;;;19.80;10.50;;;;;;;;;;4917624;29;20320;-72
2023/12/17 13:03:14;;;;;;;18.53;9.90;;;;;;;;;;4927054;29;20273;-71
2023/12/17 13:05:41;;;;;;;20.17;10.10;;;;;;;;;;4908855;29;20329;-70
2023/12/17 13:08:07;;;;;;;19.47;10.03;;;;;;;;;;4925099;29;20255;-70
2023/12/17 13:10:33;;;;;;;22.00;10.63;;;;;;;;;;4926199;29;20742;-71
2023/12/17 13:12:58;;;;;;;22.33;11.17;;;;;;;;;;4925838;29;20394;-71
2023/12/17 13:15:23;;;;;;;19.37;9.43;;;;;;;;;;4925546;29;20713;-69
2023/12/17 13:17:49;;;;;;;18.10;9.10;;;;;;;;;;4926154;29;20635;-70
2023/12/17 13:20:14;;;;;;;15.07;8.27;;;;;;;;;;4928150;29;20229;-71
2023/12/17 13:22:39;;;;;;;18.23;8.50;;;;;;;;;;4926637;29;20734;-71
2023/12/17 13:25:06;;;;;;;16.73;8.47;;;;;;;;;;4924696;29;20305;-71
2023/12/17 13:27:32;;;;;;;17.50;9.23;;;;;;;;;;4925064;29;20233;-69
2023/12/17 13:29:57;;;;;;;16.57;8.53;;;;;;;;;;4925687;29;20221;-71
2023/12/17 13:32:23;;;;;;;16.57;9.17;;;;;;;;;;4925679;29;20233;-71
2023/12/17 13:34:48;;;;;;;18.53;8.87;;;;;;;;;;4925931;29;20710;-72
2023/12/17 13:37:13;;;;;;;17.43;9.33;;;;;;;;;;4924275;29;20324;-70
2023/12/17 13:39:39;;;;;;;18.70;9.83;;;;;;;;;;4920215;29;20237;-71
2023/12/17 13:42:05;;;;;;;19.33;9.50;;;;;;;;;;4919915;29;20226;-72
2023/12/17 13:44:30;;;;;;;22.13;11.00;;;;;;;;;;4924074;29;20233;-72
2023/12/17 13:46:56;;;;;;;20.17;9.67;;;;;;;;;;4923911;29;20281;-73
2023/12/17 13:49:21;;;;;;;17.57;9.27;;;;;;;;;;4925203;29;20277;-74
2023/12/17 13:51:46;;;;;;;19.03;9.33;;;;;;;;;;4923378;29;20242;-73
2023/12/17 13:54:12;;;;;;;17.60;9.23;;;;;;;;;;4923963;29;20226;-73
2023/12/17 13:56:39;;;;;;;17.07;9.27;;;;;;;;;;4908559;29;20558;-73
2023/12/17 13:59:04;;;;;;;23.93;9.40;;;;;;;;;;4925204;29;20221;-73
2023/12/17 14:01:30;;;;;;;17.20;9.27;;;;;;;;;;4923707;29;20244;-73
2023/12/17 14:03:58;;;;;;;18.80;10.00;;;;;;;;;;4907909;29;20226;-74
2023/12/17 14:06:24;;;;;;;18.43;9.23;;;;;;;;;;4924492;29;20730;-73
2023/12/17 14:08:51;;;;;;;19.60;10.03;;;;;;;;;;4924388;29;20218;-75
2023/12/17 14:11:16;;;;;;;18.37;9.13;;;;;;;;;;4922903;29;21047;-73
2023/12/17 14:13:42;;;;;;;17.50;9.10;;;;;;;;;;4924246;29;20235;-74
2023/12/17 14:16:11;;;;;;;20.13;9.90;;;;;;;;;;4923352;29;20672;-71
2023/12/17 14:18:40;;;;;;;19.07;9.83;;;;;;;;;;4907030;29;20962;-71